Allure of the Seas — C6XS8 — position and weather

sailwx.info

Track history (hours):
 
Tides and Currents Weather Stations Pressure Air Temp Water Temp Dewpoint Dewpoint Depression Visibility Wind Speed Wind Dir Waves Ship Positions

Allure of the Seas

Last reported at 2018-Feb-18 23:36 UTC. Time now 2018-Feb-19 10:11 UTC.
Position N 26°08' W 079°43'.

Length 362 m; draft 9.3 m.

Type: Passenger vessel. MMSI: 311020700.

Date/timePositionNaut miles runAvg speedWind from/ knotsBaromVisibWave heightAir tempDewpointWater temp
2018-Feb-18 23:36N 26°08' W 079°43'215.9
2018-Feb-18 23:30N 26°07' W 079°45'816.0
2018-Feb-18 23:00N 26°07' W 079°54'715.0
2018-Feb-18 22:30N 26°06' W 080°02'4 8.8
2018-Feb-18 22:00N 26°06' W 080°07'0 0.8
2018-Feb-18 21:29N 26°05' W 080°07'0 0.0
2018-Feb-18 20:59N 26°05' W 080°07'0 0.0
2018-Feb-18 20:29N 26°05' W 080°07'0 0.0
2018-Feb-18 19:59N 26°05' W 080°07'0 0.0
2018-Feb-18 19:29N 26°05' W 080°07'0 0.0
2018-Feb-18 18:59N 26°05' W 080°07'0 0.0
2018-Feb-18 18:29N 26°05' W 080°07'0 0.0
2018-Feb-18 17:59N 26°05' W 080°07'0 0.0
2018-Feb-18 17:29N 26°05' W 080°07'0 0.0
2018-Feb-18 16:59N 26°05' W 080°07'0 0.0
2018-Feb-18 16:29N 26°05' W 080°07'0 0.0
2018-Feb-18 15:59N 26°05' W 080°07'0 0.0
2018-Feb-18 15:29N 26°05' W 080°07'0 0.0
2018-Feb-18 14:59N 26°05' W 080°07'0 0.0
2018-Feb-18 14:29N 26°05' W 080°07'0 0.0
2018-Feb-18 13:59N 26°05' W 080°07'0 0.0
2018-Feb-18 13:29N 26°05' W 080°07'0 0.0
2018-Feb-18 12:59N 26°05' W 080°07'0 0.0
2018-Feb-18 12:26N 26°05' W 080°07'0 0.0
2018-Feb-18 11:59N 26°05' W 080°07'0 0.0
2018-Feb-18 11:29N 26°05' W 080°07'0 0.0
2018-Feb-18 10:59N 26°05' W 080°07'0 0.1
2018-Feb-18 10:30N 26°05' W 080°07'4 7.2
2018-Feb-18 10:01N 26°06' W 080°03'5 9.7
2018-Feb-18 09:31N 26°04' W 079°58'612.5
2018-Feb-18 09:00N 26°02' W 079°52'713.8
2018-Feb-18 08:30N 25°59' W 079°45'713.5
2018-Feb-18 08:01N 25°53' W 079°40'814.9
2018-Feb-18 07:30N 25°46' W 079°40'715.1
2018-Feb-18 07:00N 25°38' W 079°40'31016.3
2018-Feb-17 12:00N 22°48' W 084°24'19916.9 120 / 201021.010.8 24.019.428.0
2018-Feb-17 00:15N 20°32' W 086°60'2 9.8
2018-Feb-17 00:00N 20°30' W 086°59'1 1.4
2018-Feb-16 23:29N 20°29' W 086°59'0 0.0
2018-Feb-16 22:59N 20°29' W 086°59'0 0.0
2018-Feb-16 22:29N 20°29' W 086°59'0 0.0
2018-Feb-16 21:59N 20°29' W 086°59'0 0.0
2018-Feb-16 21:29N 20°29' W 086°59'0 0.0
2018-Feb-16 20:59N 20°29' W 086°59'0 0.0
2018-Feb-16 20:29N 20°29' W 086°59'0 0.0
2018-Feb-16 19:59N 20°29' W 086°59'0 0.0
2018-Feb-16 19:29N 20°29' W 086°59'0 0.0
2018-Feb-16 18:56N 20°29' W 086°59'0 0.0
2018-Feb-16 18:29N 20°29' W 086°59'0 0.0
2018-Feb-16 17:59N 20°29' W 086°59'0 0.0
2018-Feb-16 17:29N 20°29' W 086°59'0 0.0
2018-Feb-16 16:59N 20°29' W 086°59'0 0.0
2018-Feb-16 16:23N 20°29' W 086°59'0 0.0
2018-Feb-16 15:59N 20°29' W 086°59'0 0.0
2018-Feb-16 15:29N 20°29' W 086°59'0 0.0
2018-Feb-16 14:59N 20°29' W 086°59'0 0.0
2018-Feb-16 14:29N 20°29' W 086°59'0 0.0
2018-Feb-16 13:59N 20°29' W 086°59'0 0.0
2018-Feb-16 13:29N 20°29' W 086°59'0 0.0
2018-Feb-16 12:59N 20°29' W 086°59'0 0.6
2018-Feb-16 12:30N 20°29' W 086°59'4 8.1
2018-Feb-16 12:00N 20°33' W 086°59'57512.0
2018-Feb-14 12:00N 18°42' W 077°00'181 4.4 070 / 301022.010.8 25.018.829.0
2018-Feb-12 19:00N 21°42' W 076°42'12618.0 090 / 301021.010.8 28.022.128.0
2018-Feb-12 12:00N 22°42' W 078°42'19517.1 080 / 301022.010.8 24.021.027.0
2018-Feb-12 00:32N 25°50' W 079°39'112.1
2018-Feb-12 00:29N 25°51' W 079°39'1113.5
2018-Feb-11 23:41N 25°59' W 079°48'414.8
2018-Feb-11 23:27N 26°00' W 079°51'614.7
2018-Feb-11 23:00N 26°03' W 079°57'713.1
2018-Feb-11 22:30N 26°06' W 080°04'3 6.0
2018-Feb-11 22:00N 26°05' W 080°07'0 0.1
2018-Feb-11 21:28N 26°05' W 080°07'0 0.0
2018-Feb-11 20:58N 26°05' W 080°07'0 0.0
2018-Feb-11 20:28N 26°05' W 080°07'0 0.0
2018-Feb-11 19:58N 26°05' W 080°07'0 0.0
2018-Feb-11 19:28N 26°05' W 080°07'0 0.0
2018-Feb-11 18:58N 26°05' W 080°07'0 0.0
2018-Feb-11 18:28N 26°05' W 080°07'0 0.0
2018-Feb-11 17:58N 26°05' W 080°07'0 0.0
2018-Feb-11 17:28N 26°05' W 080°07'0 0.0
2018-Feb-11 16:58N 26°05' W 080°07'0 0.0
2018-Feb-11 16:28N 26°05' W 080°07'0 0.0
2018-Feb-11 15:55N 26°05' W 080°07'0 0.0
2018-Feb-11 15:28N 26°05' W 080°07'0 0.0
2018-Feb-11 14:58N 26°05' W 080°07'0 0.0
2018-Feb-11 14:28N 26°05' W 080°07'0 0.0
2018-Feb-11 13:58N 26°05' W 080°07'0 0.0
2018-Feb-11 13:28N 26°05' W 080°07'0 0.0
2018-Feb-11 12:58N 26°05' W 080°07'0 0.0
2018-Feb-11 12:28N 26°05' W 080°07'0 0.0
2018-Feb-11 11:58N 26°05' W 080°07'0 0.0
2018-Feb-11 11:28N 26°05' W 080°07'0 0.0
2018-Feb-11 10:58N 26°05' W 080°07'0 0.0
2018-Feb-11 10:28N 26°05' W 080°07'2 4.2
2018-Feb-11 10:01N 26°06' W 080°05'611.5
2018-Feb-11 09:30N 26°06' W 079°59'714.0
2018-Feb-11 09:00N 26°07' W 079°51'814.8
2018-Feb-11 08:30N 26°08' W 079°43'816.6
2018-Feb-11 08:00N 26°09' W 079°34'25318.1
2018-Feb-10 18:00N 24°54' W 075°06'   090 / 211023.010.8 24.021.027.0
Track history (hours):
 
Tides and Currents Weather Stations Pressure Air Temp Water Temp Dewpoint Dewpoint Depression Visibility Wind Speed Wind Dir Waves Ship Positions

Allure of the Seas

Last reported at 2018-Feb-18 23:36 UTC. Time now 2018-Feb-19 10:11 UTC.
Position N 26°08' W 079°43'.

Length 362 m; draft 9.3 m.

Type: Passenger vessel. MMSI: 311020700.

Date/timePositionNaut miles runAvg speedWind from/ knotsBaromVisibWave heightAir tempDewpointWater temp
2018-Feb-18 23:36N 26°08' W 079°43'215.9
2018-Feb-18 23:30N 26°07' W 079°45'816.0
2018-Feb-18 23:00N 26°07' W 079°54'715.0
2018-Feb-18 22:30N 26°06' W 080°02'4 8.8
2018-Feb-18 22:00N 26°06' W 080°07'0 0.8
2018-Feb-18 21:29N 26°05' W 080°07'0 0.0
2018-Feb-18 20:59N 26°05' W 080°07'0 0.0
2018-Feb-18 20:29N 26°05' W 080°07'0 0.0
2018-Feb-18 19:59N 26°05' W 080°07'0 0.0
2018-Feb-18 19:29N 26°05' W 080°07'0 0.0
2018-Feb-18 18:59N 26°05' W 080°07'0 0.0
2018-Feb-18 18:29N 26°05' W 080°07'0 0.0
2018-Feb-18 17:59N 26°05' W 080°07'0 0.0
2018-Feb-18 17:29N 26°05' W 080°07'0 0.0
2018-Feb-18 16:59N 26°05' W 080°07'0 0.0
2018-Feb-18 16:29N 26°05' W 080°07'0 0.0
2018-Feb-18 15:59N 26°05' W 080°07'0 0.0
2018-Feb-18 15:29N 26°05' W 080°07'0 0.0
2018-Feb-18 14:59N 26°05' W 080°07'0 0.0
2018-Feb-18 14:29N 26°05' W 080°07'0 0.0
2018-Feb-18 13:59N 26°05' W 080°07'0 0.0
2018-Feb-18 13:29N 26°05' W 080°07'0 0.0
2018-Feb-18 12:59N 26°05' W 080°07'0 0.0
2018-Feb-18 12:26N 26°05' W 080°07'0 0.0
2018-Feb-18 11:59N 26°05' W 080°07'0 0.0
2018-Feb-18 11:29N 26°05' W 080°07'0 0.0
2018-Feb-18 10:59N 26°05' W 080°07'0 0.1
2018-Feb-18 10:30N 26°05' W 080°07'4 7.2
2018-Feb-18 10:01N 26°06' W 080°03'5 9.7
2018-Feb-18 09:31N 26°04' W 079°58'612.5
2018-Feb-18 09:00N 26°02' W 079°52'713.8
2018-Feb-18 08:30N 25°59' W 079°45'713.5
2018-Feb-18 08:01N 25°53' W 079°40'814.9
2018-Feb-18 07:30N 25°46' W 079°40'715.1
2018-Feb-18 07:00N 25°38' W 079°40'31016.3
2018-Feb-17 12:00N 22°48' W 084°24'19916.9 120 / 201021.010.8 24.019.428.0
2018-Feb-17 00:15N 20°32' W 086°60'2 9.8
2018-Feb-17 00:00N 20°30' W 086°59'1 1.4
2018-Feb-16 23:29N 20°29' W 086°59'0 0.0
2018-Feb-16 22:59N 20°29' W 086°59'0 0.0
2018-Feb-16 22:29N 20°29' W 086°59'0 0.0
2018-Feb-16 21:59N 20°29' W 086°59'0 0.0
2018-Feb-16 21:29N 20°29' W 086°59'0 0.0
2018-Feb-16 20:59N 20°29' W 086°59'0 0.0
2018-Feb-16 20:29N 20°29' W 086°59'0 0.0
2018-Feb-16 19:59N 20°29' W 086°59'0 0.0
2018-Feb-16 19:29N 20°29' W 086°59'0 0.0
2018-Feb-16 18:56N 20°29' W 086°59'0 0.0
2018-Feb-16 18:29N 20°29' W 086°59'0 0.0
2018-Feb-16 17:59N 20°29' W 086°59'0 0.0
2018-Feb-16 17:29N 20°29' W 086°59'0 0.0
2018-Feb-16 16:59N 20°29' W 086°59'0 0.0
2018-Feb-16 16:23N 20°29' W 086°59'0 0.0
2018-Feb-16 15:59N 20°29' W 086°59'0 0.0
2018-Feb-16 15:29N 20°29' W 086°59'0 0.0
2018-Feb-16 14:59N 20°29' W 086°59'0 0.0
2018-Feb-16 14:29N 20°29' W 086°59'0 0.0
2018-Feb-16 13:59N 20°29' W 086°59'0 0.0
2018-Feb-16 13:29N 20°29' W 086°59'0 0.0
2018-Feb-16 12:59N 20°29' W 086°59'0 0.6
2018-Feb-16 12:30N 20°29' W 086°59'4 8.1
2018-Feb-16 12:00N 20°33' W 086°59'57512.0
2018-Feb-14 12:00N 18°42' W 077°00'181 4.4 070 / 301022.010.8 25.018.829.0
2018-Feb-12 19:00N 21°42' W 076°42'12618.0 090 / 301021.010.8 28.022.128.0
2018-Feb-12 12:00N 22°42' W 078°42'19517.1 080 / 301022.010.8 24.021.027.0
2018-Feb-12 00:32N 25°50' W 079°39'112.1
2018-Feb-12 00:29N 25°51' W 079°39'1113.5
2018-Feb-11 23:41N 25°59' W 079°48'414.8
2018-Feb-11 23:27N 26°00' W 079°51'614.7
2018-Feb-11 23:00N 26°03' W 079°57'713.1
2018-Feb-11 22:30N 26°06' W 080°04'3 6.0
2018-Feb-11 22:00N 26°05' W 080°07'0 0.1
2018-Feb-11 21:28N 26°05' W 080°07'0 0.0
2018-Feb-11 20:58N 26°05' W 080°07'0 0.0
2018-Feb-11 20:28N 26°05' W 080°07'0 0.0
2018-Feb-11 19:58N 26°05' W 080°07'0 0.0
2018-Feb-11 19:28N 26°05' W 080°07'0 0.0
2018-Feb-11 18:58N 26°05' W 080°07'0 0.0
2018-Feb-11 18:28N 26°05' W 080°07'0 0.0
2018-Feb-11 17:58N 26°05' W 080°07'0 0.0
2018-Feb-11 17:28N 26°05' W 080°07'0 0.0
2018-Feb-11 16:58N 26°05' W 080°07'0 0.0
2018-Feb-11 16:28N 26°05' W 080°07'0 0.0
2018-Feb-11 15:55N 26°05' W 080°07'0 0.0
2018-Feb-11 15:28N 26°05' W 080°07'0 0.0
2018-Feb-11 14:58N 26°05' W 080°07'0 0.0
2018-Feb-11 14:28N 26°05' W 080°07'0 0.0
2018-Feb-11 13:58N 26°05' W 080°07'0 0.0
2018-Feb-11 13:28N 26°05' W 080°07'0 0.0
2018-Feb-11 12:58N 26°05' W 080°07'0 0.0
2018-Feb-11 12:28N 26°05' W 080°07'0 0.0
2018-Feb-11 11:58N 26°05' W 080°07'0 0.0
2018-Feb-11 11:28N 26°05' W 080°07'0 0.0
2018-Feb-11 10:58N 26°05' W 080°07'0 0.0
2018-Feb-11 10:28N 26°05' W 080°07'2 4.2
2018-Feb-11 10:01N 26°06' W 080°05'611.5
2018-Feb-11 09:30N 26°06' W 079°59'714.0
2018-Feb-11 09:00N 26°07' W 079°51'814.8
2018-Feb-11 08:30N 26°08' W 079°43'816.6
2018-Feb-11 08:00N 26°09' W 079°34'25318.1
2018-Feb-10 18:00N 24°54' W 075°06'   090 / 211023.010.8 24.021.027.0

Dump ship's entire track history